sensor_id;sensor_type;location;lat;lon;timestamp;P1;durP1;ratioP1;P2;durP2;ratioP2
17193;SDS011;8713;48.388;10.928;2024-02-28T07:58:21;26.92;;;10.55;;
17193;SDS011;8713;48.388;10.928;2024-02-28T07:59:51;19.80;;;8.85;;
17193;SDS011;8713;48.388;10.928;2024-02-28T08:01:21;19.90;;;9.23;;
17193;SDS011;8713;48.388;10.928;2024-02-28T08:02:51;18.25;;;7.80;;
17193;SDS011;8713;48.388;10.928;2024-02-28T08:04:21;22.33;;;9.20;;
17193;SDS011;8713;48.388;10.928;2024-02-28T08:05:51;16.58;;;8.10;;
17193;SDS011;8713;48.388;10.928;2024-02-28T08:07:20;18.42;;;8.13;;
17193;SDS011;8713;48.388;10.928;2024-02-28T08:08:50;20.92;;;8.00;;
17193;SDS011;8713;48.388;10.928;2024-02-28T08:10:19;22.17;;;9.68;;
17193;SDS011;8713;48.388;10.928;2024-02-28T08:11:48;23.98;;;10.00;;
17193;SDS011;8713;48.388;10.928;2024-02-28T08:13:18;23.92;;;10.50;;
17193;SDS011;8713;48.388;10.928;2024-02-28T08:14:48;18.90;;;7.88;;
17193;SDS011;8713;48.388;10.928;2024-02-28T08:16:18;14.07;;;6.70;;
17193;SDS011;8713;48.388;10.928;2024-02-28T08:17:47;12.40;;;5.65;;
17193;SDS011;8713;48.388;10.928;2024-02-28T08:19:16;23.10;;;10.35;;
17193;SDS011;8713;48.388;10.928;2024-02-28T08:20:46;22.23;;;9.38;;
17193;SDS011;8713;48.388;10.928;2024-02-28T08:22:16;20.55;;;9.98;;
17193;SDS011;8713;48.388;10.928;2024-02-28T08:23:45;19.60;;;9.13;;
17193;SDS011;8713;48.388;10.928;2024-02-28T08:25:15;28.15;;;11.65;;
17193;SDS011;8713;48.388;10.928;2024-02-28T08:26:45;20.55;;;9.95;;
17193;SDS011;8713;48.388;10.928;2024-02-28T08:28:15;22.10;;;9.70;;
17193;SDS011;8713;48.388;10.928;2024-02-28T08:29:45;35.33;;;18.00;;
17193;SDS011;8713;48.388;10.928;2024-02-28T08:31:15;24.40;;;11.70;;
17193;SDS011;8713;48.388;10.928;2024-02-28T08:32:45;18.98;;;8.93;;
17193;SDS011;8713;48.388;10.928;2024-02-28T08:34:15;17.42;;;9.00;;
17193;SDS011;8713;48.388;10.928;2024-02-28T08:35:45;21.33;;;9.95;;
17193;SDS011;8713;48.388;10.928;2024-02-28T08:37:14;24.70;;;11.52;;
17193;SDS011;8713;48.388;10.928;2024-02-28T08:38:45;24.95;;;12.02;;
17193;SDS011;8713;48.388;10.928;2024-02-28T08:40:14;23.30;;;10.38;;
17193;SDS011;8713;48.388;10.928;2024-02-28T08:41:43;21.35;;;9.65;;
17193;SDS011;8713;48.388;10.928;2024-02-28T08:43:13;21.48;;;9.90;;
17193;SDS011;8713;48.388;10.928;2024-02-28T08:44:43;25.98;;;11.48;;
17193;SDS011;8713;48.388;10.928;2024-02-28T08:46:15;23.23;;;9.82;;
17193;SDS011;8713;48.388;10.928;2024-02-28T08:47:45;20.15;;;8.98;;
17193;SDS011;8713;48.388;10.928;2024-02-28T08:49:14;26.83;;;11.90;;
17193;SDS011;8713;48.388;10.928;2024-02-28T08:50:44;24.00;;;12.10;;
17193;SDS011;8713;48.388;10.928;2024-02-28T08:52:13;25.20;;;11.80;;
17193;SDS011;8713;48.388;10.928;2024-02-28T08:53:43;22.27;;;10.15;;
17193;SDS011;8713;48.388;10.928;2024-02-28T08:55:12;24.75;;;10.63;;
17193;SDS011;8713;48.388;10.928;2024-02-28T08:56:42;22.35;;;9.15;;
17193;SDS011;8713;48.388;10.928;2024-02-28T08:58:12;19.40;;;8.77;;
17193;SDS011;8713;48.388;10.928;2024-02-28T08:59:42;29.67;;;10.50;;
17193;SDS011;8713;48.388;10.928;2024-02-28T09:01:14;25.95;;;10.55;;
17193;SDS011;8713;48.388;10.928;2024-02-28T09:02:44;19.55;;;8.10;;
17193;SDS011;8713;48.388;10.928;2024-02-28T09:04:14;23.20;;;9.80;;
17193;SDS011;8713;48.388;10.928;2024-02-28T09:05:44;22.83;;;9.68;;
17193;SDS011;8713;48.388;10.928;2024-02-28T09:07:13;17.83;;;7.97;;
17193;SDS011;8713;48.388;10.928;2024-02-28T09:08:43;16.58;;;7.03;;
17193;SDS011;8713;48.388;10.928;2024-02-28T09:10:13;18.10;;;8.48;;
17193;SDS011;8713;48.388;10.928;2024-02-28T09:11:42;21.35;;;9.00;;
17193;SDS011;8713;48.388;10.928;2024-02-28T09:13:12;22.13;;;10.40;;
17193;SDS011;8713;48.388;10.928;2024-02-28T09:14:41;20.92;;;8.63;;
17193;SDS011;8713;48.388;10.928;2024-02-28T09:16:10;16.65;;;7.43;;
17193;SDS011;8713;48.388;10.928;2024-02-28T09:17:40;20.40;;;10.13;;
17193;SDS011;8713;48.388;10.928;2024-02-28T09:19:10;24.98;;;10.80;;
17193;SDS011;8713;48.388;10.928;2024-02-28T09:20:39;23.63;;;10.73;;
17193;SDS011;8713;48.388;10.928;2024-02-28T09:22:09;28.40;;;11.30;;
17193;SDS011;8713;48.388;10.928;2024-02-28T09:23:39;22.42;;;10.10;;
17193;SDS011;8713;48.388;10.928;2024-02-28T09:25:08;23.00;;;9.85;;
17193;SDS011;8713;48.388;10.928;2024-02-28T09:26:39;26.20;;;9.93;;
17193;SDS011;8713;48.388;10.928;2024-02-28T09:28:08;17.40;;;8.35;;
17193;SDS011;8713;48.388;10.928;2024-02-28T09:29:42;23.15;;;10.35;;
17193;SDS011;8713;48.388;10.928;2024-02-28T09:31:11;25.13;;;11.65;;
17193;SDS011;8713;48.388;10.928;2024-02-28T09:32:42;21.50;;;9.88;;
17193;SDS011;8713;48.388;10.928;2024-02-28T09:34:12;19.10;;;8.75;;
17193;SDS011;8713;48.388;10.928;2024-02-28T09:35:42;29.40;;;13.68;;
17193;SDS011;8713;48.388;10.928;2024-02-28T09:37:11;29.80;;;11.85;;
17193;SDS011;8713;48.388;10.928;2024-02-28T09:38:42;27.88;;;12.70;;
17193;SDS011;8713;48.388;10.928;2024-02-28T09:40:13;28.70;;;11.57;;
17193;SDS011;8713;48.388;10.928;2024-02-28T09:41:42;25.77;;;10.00;;
17193;SDS011;8713;48.388;10.928;2024-02-28T09:43:15;24.58;;;9.90;;
17193;SDS011;8713;48.388;10.928;2024-02-28T09:45:05;25.52;;;10.13;;
17193;SDS011;8713;48.388;10.928;2024-02-28T09:46:39;30.20;;;11.82;;
17193;SDS011;8713;48.388;10.928;2024-02-28T09:48:09;23.10;;;9.10;;
17193;SDS011;8713;48.388;10.928;2024-02-28T09:49:39;27.90;;;10.73;;
17193;SDS011;8713;48.388;10.928;2024-02-28T09:51:11;18.67;;;7.63;;
17193;SDS011;8713;48.388;10.928;2024-02-28T09:52:42;28.42;;;11.80;;
17193;SDS011;8713;48.388;10.928;2024-02-28T09:54:11;27.77;;;11.02;;
17193;SDS011;8713;48.388;10.928;2024-02-28T09:55:41;19.80;;;9.13;;
17193;SDS011;8713;48.388;10.928;2024-02-28T09:57:11;18.33;;;7.78;;
17193;SDS011;8713;48.388;10.928;2024-02-28T09:58:41;25.15;;;9.95;;
17193;SDS011;8713;48.388;10.928;2024-02-28T10:00:12;19.83;;;8.68;;
17193;SDS011;8713;48.388;10.928;2024-02-28T10:01:43;27.50;;;10.30;;
17193;SDS011;8713;48.388;10.928;2024-02-28T10:03:13;26.70;;;11.05;;
17193;SDS011;8713;48.388;10.928;2024-02-28T10:04:52;22.33;;;10.00;;
17193;SDS011;8713;48.388;10.928;2024-02-28T10:06:22;19.67;;;9.15;;
17193;SDS011;8713;48.388;10.928;2024-02-28T10:07:52;17.58;;;7.80;;
17193;SDS011;8713;48.388;10.928;2024-02-28T10:09:22;24.83;;;9.77;;
17193;SDS011;8713;48.388;10.928;2024-02-28T10:10:52;20.70;;;8.25;;
17193;SDS011;8713;48.388;10.928;2024-02-28T10:12:24;20.25;;;8.23;;
17193;SDS011;8713;48.388;10.928;2024-02-28T10:13:54;22.30;;;9.27;;
17193;SDS011;8713;48.388;10.928;2024-02-28T10:15:27;19.95;;;9.50;;
17193;SDS011;8713;48.388;10.928;2024-02-28T10:16:57;19.60;;;8.88;;
17193;SDS011;8713;48.388;10.928;2024-02-28T10:18:26;23.50;;;9.85;;
17193;SDS011;8713;48.388;10.928;2024-02-28T10:19:57;19.00;;;8.68;;
17193;SDS011;8713;48.388;10.928;2024-02-28T10:21:29;21.85;;;9.02;;
17193;SDS011;8713;48.388;10.928;2024-02-28T10:23:04;21.75;;;9.18;;
17193;SDS011;8713;48.388;10.928;2024-02-28T10:24:35;19.83;;;9.32;;
17193;SDS011;8713;48.388;10.928;2024-02-28T10:26:08;22.35;;;9.57;;
17193;SDS011;8713;48.388;10.928;2024-02-28T10:27:39;25.75;;;10.27;;
17193;SDS011;8713;48.388;10.928;2024-02-28T10:29:10;21.60;;;8.73;;
17193;SDS011;8713;48.388;10.928;2024-02-28T10:30:41;20.45;;;10.00;;
17193;SDS011;8713;48.388;10.928;2024-02-28T10:32:10;22.60;;;10.07;;
17193;SDS011;8713;48.388;10.928;2024-02-28T10:33:41;25.27;;;10.48;;
17193;SDS011;8713;48.388;10.928;2024-02-28T10:35:11;24.45;;;10.57;;
17193;SDS011;8713;48.388;10.928;2024-02-28T10:36:40;25.27;;;10.82;;
17193;SDS011;8713;48.388;10.928;2024-02-28T10:38:11;22.73;;;10.30;;
17193;SDS011;8713;48.388;10.928;2024-02-28T10:39:41;21.75;;;10.15;;
17193;SDS011;8713;48.388;10.928;2024-02-28T10:41:12;26.00;;;10.98;;
17193;SDS011;8713;48.388;10.928;2024-02-28T10:42:43;25.60;;;10.45;;
17193;SDS011;8713;48.388;10.928;2024-02-28T10:44:13;24.70;;;10.20;;
17193;SDS011;8713;48.388;10.928;2024-02-28T10:45:42;25.75;;;11.07;;
17193;SDS011;8713;48.388;10.928;2024-02-28T10:47:12;26.08;;;9.98;;
17193;SDS011;8713;48.388;10.928;2024-02-28T10:48:43;24.10;;;9.43;;
17193;SDS011;8713;48.388;10.928;2024-02-28T10:50:13;20.63;;;8.35;;
17193;SDS011;8713;48.388;10.928;2024-02-28T10:51:45;23.50;;;8.77;;
17193;SDS011;8713;48.388;10.928;2024-02-28T10:53:01;22.95;;;10.38;;
17193;SDS011;8713;48.388;10.928;2024-02-28T10:54:12;22.92;;;9.85;;
17193;SDS011;8713;48.388;10.928;2024-02-28T10:55:40;31.40;;;15.07;;
17193;SDS011;8713;48.388;10.928;2024-02-28T10:57:09;36.90;;;16.15;;
17193;SDS011;8713;48.388;10.928;2024-02-28T10:58:43;34.63;;;14.82;;
17193;SDS011;8713;48.388;10.928;2024-02-28T11:00:20;33.72;;;15.63;;
17193;SDS011;8713;48.388;10.928;2024-02-28T11:01:48;37.38;;;15.95;;
17193;SDS011;8713;48.388;10.928;2024-02-28T11:03:16;31.15;;;13.55;;
17193;SDS011;8713;48.388;10.928;2024-02-28T11:04:45;35.53;;;15.73;;
17193;SDS011;8713;48.388;10.928;2024-02-28T11:06:20;30.75;;;14.55;;
17193;SDS011;8713;48.388;10.928;2024-02-28T11:07:52;33.00;;;14.85;;
17193;SDS011;8713;48.388;10.928;2024-02-28T11:09:22;32.58;;;14.55;;
17193;SDS011;8713;48.388;10.928;2024-02-28T11:11:02;39.35;;;17.92;;
17193;SDS011;8713;48.388;10.928;2024-02-28T11:12:31;38.38;;;18.25;;
17193;SDS011;8713;48.388;10.928;2024-02-28T11:14:00;33.00;;;15.52;;
17193;SDS011;8713;48.388;10.928;2024-02-28T11:15:28;32.00;;;13.55;;
17193;SDS011;8713;48.388;10.928;2024-02-28T11:17:04;31.27;;;14.13;;
17193;SDS011;8713;48.388;10.928;2024-02-28T11:18:33;23.88;;;10.80;;
17193;SDS011;8713;48.388;10.928;2024-02-28T11:20:10;23.95;;;10.55;;
17193;SDS011;8713;48.388;10.928;2024-02-28T11:21:40;20.25;;;8.93;;
17193;SDS011;8713;48.388;10.928;2024-02-28T11:23:09;21.83;;;9.23;;
17193;SDS011;8713;48.388;10.928;2024-02-28T11:24:37;22.67;;;10.20;;
17193;SDS011;8713;48.388;10.928;2024-02-28T11:26:06;21.23;;;8.95;;
17193;SDS011;8713;48.388;10.928;2024-02-28T11:27:34;20.60;;;9.77;;
17193;SDS011;8713;48.388;10.928;2024-02-28T11:29:04;26.63;;;10.40;;
17193;SDS011;8713;48.388;10.928;2024-02-28T11:30:35;23.05;;;9.95;;
17193;SDS011;8713;48.388;10.928;2024-02-28T11:32:03;21.23;;;9.25;;
17193;SDS011;8713;48.388;10.928;2024-02-28T11:33:33;19.88;;;8.80;;
17193;SDS011;8713;48.388;10.928;2024-02-28T11:35:01;26.00;;;11.13;;
17193;SDS011;8713;48.388;10.928;2024-02-28T11:36:29;26.35;;;11.07;;
17193;SDS011;8713;48.388;10.928;2024-02-28T11:37:59;22.83;;;9.68;;
17193;SDS011;8713;48.388;10.928;2024-02-28T11:39:28;23.95;;;9.90;;
17193;SDS011;8713;48.388;10.928;2024-02-28T11:41:00;27.23;;;10.80;;
17193;SDS011;8713;48.388;10.928;2024-02-28T11:42:28;22.73;;;8.43;;
17193;SDS011;8713;48.388;10.928;2024-02-28T11:43:56;19.38;;;9.20;;
17193;SDS011;8713;48.388;10.928;2024-02-28T11:45:24;20.75;;;8.77;;
17193;SDS011;8713;48.388;10.928;2024-02-28T11:46:37;24.48;;;10.32;;
17193;SDS011;8713;48.388;10.928;2024-02-28T11:48:05;19.75;;;9.38;;
17193;SDS011;8713;48.388;10.928;2024-02-28T11:49:34;20.90;;;9.82;;
17193;SDS011;8713;48.388;10.928;2024-02-28T11:51:03;21.73;;;9.48;;
17193;SDS011;8713;48.388;10.928;2024-02-28T11:52:32;22.58;;;9.73;;
17193;SDS011;8713;48.388;10.928;2024-02-28T11:54:01;21.33;;;9.60;;
17193;SDS011;8713;48.388;10.928;2024-02-28T11:55:30;24.17;;;9.77;;
17193;SDS011;8713;48.388;10.928;2024-02-28T11:56:39;31.45;;;13.48;;
17193;SDS011;8713;48.388;10.928;2024-02-28T11:58:08;23.98;;;10.35;;
17193;SDS011;8713;48.388;10.928;2024-02-28T11:59:37;21.55;;;10.13;;
17193;SDS011;8713;48.388;10.928;2024-02-28T12:01:05;21.90;;;9.43;;
17193;SDS011;8713;48.388;10.928;2024-02-28T12:02:33;24.30;;;11.07;;
17193;SDS011;8713;48.388;10.928;2024-02-28T12:04:05;24.90;;;11.25;;
17193;SDS011;8713;48.388;10.928;2024-02-28T12:05:34;27.98;;;11.23;;
17193;SDS011;8713;48.388;10.928;2024-02-28T12:07:06;26.27;;;11.02;;
17193;SDS011;8713;48.388;10.928;2024-02-28T12:08:35;18.77;;;8.38;;
17193;SDS011;8713;48.388;10.928;2024-02-28T12:10:04;24.08;;;10.10;;
17193;SDS011;8713;48.388;10.928;2024-02-28T12:11:35;19.85;;;9.48;;
17193;SDS011;8713;48.388;10.928;2024-02-28T12:13:04;23.98;;;11.07;;
17193;SDS011;8713;48.388;10.928;2024-02-28T12:14:35;22.10;;;10.20;;
17193;SDS011;8713;48.388;10.928;2024-02-28T12:16:04;23.05;;;9.88;;
17193;SDS011;8713;48.388;10.928;2024-02-28T12:17:33;20.98;;;10.02;;
17193;SDS011;8713;48.388;10.928;2024-02-28T12:19:02;19.17;;;9.18;;
17193;SDS011;8713;48.388;10.928;2024-02-28T12:20:32;25.13;;;10.18;;
17193;SDS011;8713;48.388;10.928;2024-02-28T12:22:01;21.13;;;10.18;;
17193;SDS011;8713;48.388;10.928;2024-02-28T12:23:29;21.85;;;9.05;;
17193;SDS011;8713;48.388;10.928;2024-02-28T12:24:58;23.42;;;9.98;;
17193;SDS011;8713;48.388;10.928;2024-02-28T12:26:28;22.88;;;9.27;;
17193;SDS011;8713;48.388;10.928;2024-02-28T12:27:57;22.13;;;10.20;;
17193;SDS011;8713;48.388;10.928;2024-02-28T12:29:24;19.40;;;8.57;;
17193;SDS011;8713;48.388;10.928;2024-02-28T12:30:53;20.20;;;8.85;;
17193;SDS011;8713;48.388;10.928;2024-02-28T12:32:21;24.02;;;10.10;;
17193;SDS011;8713;48.388;10.928;2024-02-28T12:33:50;22.65;;;10.00;;
17193;SDS011;8713;48.388;10.928;2024-02-28T12:35:18;26.65;;;10.43;;
17193;SDS011;8713;48.388;10.928;2024-02-28T12:36:46;16.80;;;7.90;;
17193;SDS011;8713;48.388;10.928;2024-02-28T12:38:14;21.52;;;9.50;;
17193;SDS011;8713;48.388;10.928;2024-02-28T12:39:42;21.77;;;9.95;;
17193;SDS011;8713;48.388;10.928;2024-02-28T12:41:11;24.85;;;11.52;;
17193;SDS011;8713;48.388;10.928;2024-02-28T12:42:39;22.38;;;10.75;;
17193;SDS011;8713;48.388;10.928;2024-02-28T12:44:07;22.10;;;10.13;;
17193;SDS011;8713;48.388;10.928;2024-02-28T12:45:37;21.50;;;10.52;;
17193;SDS011;8713;48.388;10.928;2024-02-28T12:46:49;24.45;;;9.98;;
17193;SDS011;8713;48.388;10.928;2024-02-28T12:48:17;21.83;;;9.48;;
17193;SDS011;8713;48.388;10.928;2024-02-28T12:49:45;20.33;;;9.32;;
17193;SDS011;8713;48.388;10.928;2024-02-28T12:53:18;21.42;;;9.35;;
17193;SDS011;8713;48.388;10.928;2024-02-28T12:54:47;24.80;;;10.45;;
17193;SDS011;8713;48.388;10.928;2024-02-28T12:56:15;23.65;;;10.70;;
17193;SDS011;8713;48.388;10.928;2024-02-28T12:57:42;33.10;;;15.60;;
17193;SDS011;8713;48.388;10.928;2024-02-28T12:59:12;35.75;;;15.85;;
17193;SDS011;8713;48.388;10.928;2024-02-28T13:00:40;40.03;;;16.90;;
17193;SDS011;8713;48.388;10.928;2024-02-28T13:02:08;34.88;;;15.85;;
17193;SDS011;8713;48.388;10.928;2024-02-28T13:03:37;34.05;;;15.93;;
17193;SDS011;8713;48.388;10.928;2024-02-28T13:05:06;33.15;;;15.60;;
17193;SDS011;8713;48.388;10.928;2024-02-28T13:06:34;34.67;;;15.68;;
17193;SDS011;8713;48.388;10.928;2024-02-28T13:08:03;37.38;;;16.65;;
17193;SDS011;8713;48.388;10.928;2024-02-28T13:09:32;36.17;;;16.43;;
17193;SDS011;8713;48.388;10.928;2024-02-28T13:11:00;37.08;;;16.27;;
17193;SDS011;8713;48.388;10.928;2024-02-28T13:12:29;41.25;;;16.98;;
17193;SDS011;8713;48.388;10.928;2024-02-28T13:13:56;35.45;;;16.08;;
17193;SDS011;8713;48.388;10.928;2024-02-28T13:15:18;25.60;;;11.02;;
17193;SDS011;8713;48.388;10.928;2024-02-28T13:16:46;24.80;;;10.52;;
17193;SDS011;8713;48.388;10.928;2024-02-28T13:18:14;21.40;;;9.57;;
17193;SDS011;8713;48.388;10.928;2024-02-28T13:19:43;25.75;;;11.23;;
17193;SDS011;8713;48.388;10.928;2024-02-28T13:21:11;26.23;;;12.43;;
17193;SDS011;8713;48.388;10.928;2024-02-28T13:22:39;27.08;;;11.48;;
17193;SDS011;8713;48.388;10.928;2024-02-28T13:24:07;32.13;;;12.95;;
17193;SDS011;8713;48.388;10.928;2024-02-28T13:25:20;24.95;;;11.73;;
17193;SDS011;8713;48.388;10.928;2024-02-28T13:26:48;24.95;;;10.80;;
17193;SDS011;8713;48.388;10.928;2024-02-28T13:28:17;22.52;;;10.38;;
17193;SDS011;8713;48.388;10.928;2024-02-28T13:29:45;24.38;;;10.88;;
17193;SDS011;8713;48.388;10.928;2024-02-28T13:31:13;27.02;;;11.85;;
17193;SDS011;8713;48.388;10.928;2024-02-28T13:32:41;23.08;;;10.35;;
17193;SDS011;8713;48.388;10.928;2024-02-28T13:34:09;24.25;;;10.90;;
17193;SDS011;8713;48.388;10.928;2024-02-28T13:35:21;31.92;;;12.13;;
17193;SDS011;8713;48.388;10.928;2024-02-28T13:36:49;22.60;;;9.98;;
17193;SDS011;8713;48.388;10.928;2024-02-28T13:38:19;22.60;;;10.32;;
17193;SDS011;8713;48.388;10.928;2024-02-28T13:39:48;24.65;;;10.65;;
17193;SDS011;8713;48.388;10.928;2024-02-28T13:41:19;21.02;;;9.13;;
17193;SDS011;8713;48.388;10.928;2024-02-28T13:42:47;23.55;;;9.65;;
17193;SDS011;8713;48.388;10.928;2024-02-28T13:44:19;18.83;;;9.23;;
17193;SDS011;8713;48.388;10.928;2024-02-28T13:45:29;21.08;;;9.15;;
17193;SDS011;8713;48.388;10.928;2024-02-28T13:46:57;18.98;;;8.20;;
17193;SDS011;8713;48.388;10.928;2024-02-28T13:48:25;24.20;;;11.43;;
17193;SDS011;8713;48.388;10.928;2024-02-28T13:50:01;22.92;;;11.35;;
17193;SDS011;8713;48.388;10.928;2024-02-28T13:51:29;22.33;;;10.65;;
17193;SDS011;8713;48.388;10.928;2024-02-28T13:52:58;24.02;;;10.23;;
17193;SDS011;8713;48.388;10.928;2024-02-28T13:54:26;20.48;;;10.32;;
17193;SDS011;8713;48.388;10.928;2024-02-28T13:55:55;25.55;;;10.70;;
17193;SDS011;8713;48.388;10.928;2024-02-28T13:57:23;25.52;;;11.13;;
17193;SDS011;8713;48.388;10.928;2024-02-28T13:58:51;27.02;;;10.43;;
17193;SDS011;8713;48.388;10.928;2024-02-28T14:00:19;26.25;;;11.25;;
17193;SDS011;8713;48.388;10.928;2024-02-28T14:01:47;30.50;;;11.38;;
17193;SDS011;8713;48.388;10.928;2024-02-28T14:03:16;22.77;;;10.35;;
17193;SDS011;8713;48.388;10.928;2024-02-28T14:04:45;25.98;;;10.25;;
17193;SDS011;8713;48.388;10.928;2024-02-28T14:06:16;25.83;;;12.57;;
17193;SDS011;8713;48.388;10.928;2024-02-28T14:07:45;26.75;;;12.82;;
17193;SDS011;8713;48.388;10.928;2024-02-28T14:09:13;25.05;;;11.05;;
17193;SDS011;8713;48.388;10.928;2024-02-28T14:10:41;26.67;;;10.88;;
17193;SDS011;8713;48.388;10.928;2024-02-28T14:12:09;32.47;;;10.82;;
17193;SDS011;8713;48.388;10.928;2024-02-28T14:13:38;24.15;;;10.27;;
17193;SDS011;8713;48.388;10.928;2024-02-28T14:15:07;31.45;;;11.45;;
17193;SDS011;8713;48.388;10.928;2024-02-28T14:16:38;26.90;;;11.57;;
17193;SDS011;8713;48.388;10.928;2024-02-28T14:18:06;23.33;;;10.48;;
17193;SDS011;8713;48.388;10.928;2024-02-28T14:19:36;24.50;;;10.77;;
17193;SDS011;8713;48.388;10.928;2024-02-28T14:21:04;24.23;;;10.57;;
17193;SDS011;8713;48.388;10.928;2024-02-28T14:22:32;35.00;;;12.27;;
17193;SDS011;8713;48.388;10.928;2024-02-28T14:24:01;25.02;;;10.70;;
17193;SDS011;8713;48.388;10.928;2024-02-28T14:25:11;23.45;;;11.27;;
17193;SDS011;8713;48.388;10.928;2024-02-28T14:26:41;19.77;;;9.52;;
17193;SDS011;8713;48.388;10.928;2024-02-28T14:28:10;25.15;;;10.55;;
17193;SDS011;8713;48.388;10.928;2024-02-28T14:29:40;20.88;;;8.52;;
17193;SDS011;8713;48.388;10.928;2024-02-28T14:31:08;19.92;;;9.05;;
17193;SDS011;8713;48.388;10.928;2024-02-28T14:32:37;20.00;;;8.93;;
17193;SDS011;8713;48.388;10.928;2024-02-28T14:34:05;25.70;;;9.73;;
17193;SDS011;8713;48.388;10.928;2024-02-28T14:35:15;25.48;;;12.00;;
17193;SDS011;8713;48.388;10.928;2024-02-28T14:36:44;22.05;;;8.02;;
17193;SDS011;8713;48.388;10.928;2024-02-28T14:38:12;20.48;;;9.35;;
17193;SDS011;8713;48.388;10.928;2024-02-28T14:39:41;23.48;;;9.40;;
17193;SDS011;8713;48.388;10.928;2024-02-28T14:41:09;26.55;;;10.98;;
17193;SDS011;8713;48.388;10.928;2024-02-28T14:42:42;23.45;;;9.55;;
17193;SDS011;8713;48.388;10.928;2024-02-28T14:44:11;24.67;;;10.73;;
17193;SDS011;8713;48.388;10.928;2024-02-28T14:45:20;25.80;;;11.32;;
17193;SDS011;8713;48.388;10.928;2024-02-28T14:46:48;24.80;;;11.02;;
17193;SDS011;8713;48.388;10.928;2024-02-28T14:48:17;26.10;;;10.73;;
17193;SDS011;8713;48.388;10.928;2024-02-28T14:49:46;25.90;;;10.23;;
17193;SDS011;8713;48.388;10.928;2024-02-28T14:51:15;23.10;;;10.65;;
17193;SDS011;8713;48.388;10.928;2024-02-28T14:52:43;23.13;;;10.85;;
17193;SDS011;8713;48.388;10.928;2024-02-28T14:54:11;24.13;;;10.85;;
17193;SDS011;8713;48.388;10.928;2024-02-28T14:55:26;26.02;;;11.70;;
17193;SDS011;8713;48.388;10.928;2024-02-28T14:56:54;25.88;;;11.02;;
17193;SDS011;8713;48.388;10.928;2024-02-28T14:58:22;24.52;;;10.52;;
17193;SDS011;8713;48.388;10.928;2024-02-28T14:59:52;23.38;;;10.75;;
17193;SDS011;8713;48.388;10.928;2024-02-28T15:01:21;23.75;;;9.50;;
17193;SDS011;8713;48.388;10.928;2024-02-28T15:02:51;18.67;;;8.23;;
17193;SDS011;8713;48.388;10.928;2024-02-28T15:04:21;18.65;;;9.07;;
17193;SDS011;8713;48.388;10.928;2024-02-28T15:05:50;19.42;;;9.38;;
17193;SDS011;8713;48.388;10.928;2024-02-28T15:07:18;21.23;;;9.18;;
17193;SDS011;8713;48.388;10.928;2024-02-28T15:08:46;25.63;;;11.82;;
17193;SDS011;8713;48.388;10.928;2024-02-28T15:10:15;21.25;;;9.68;;
17193;SDS011;8713;48.388;10.928;2024-02-28T15:11:43;28.45;;;11.45;;
17193;SDS011;8713;48.388;10.928;2024-02-28T15:13:12;22.90;;;10.45;;
17193;SDS011;8713;48.388;10.928;2024-02-28T15:14:41;21.08;;;9.95;;
17193;SDS011;8713;48.388;10.928;2024-02-28T15:16:10;23.90;;;10.48;;
17193;SDS011;8713;48.388;10.928;2024-02-28T15:17:38;25.15;;;10.23;;
17193;SDS011;8713;48.388;10.928;2024-02-28T15:19:07;18.73;;;8.68;;
17193;SDS011;8713;48.388;10.928;2024-02-28T15:20:35;21.55;;;10.18;;
17193;SDS011;8713;48.388;10.928;2024-02-28T15:22:03;22.80;;;10.15;;
17193;SDS011;8713;48.388;10.928;2024-02-28T15:23:31;23.83;;;10.20;;
17193;SDS011;8713;48.388;10.928;2024-02-28T15:24:40;25.52;;;10.80;;
17193;SDS011;8713;48.388;10.928;2024-02-28T15:25:50;20.27;;;10.20;;
17193;SDS011;8713;48.388;10.928;2024-02-28T15:27:08;23.88;;;11.20;;
17193;SDS011;8713;48.388;10.928;2024-02-28T15:28:19;27.73;;;13.05;;
17193;SDS011;8713;48.388;10.928;2024-02-28T15:29:30;24.63;;;11.70;;
17193;SDS011;8713;48.388;10.928;2024-02-28T15:30:39;26.92;;;11.73;;
17193;SDS011;8713;48.388;10.928;2024-02-28T15:31:52;23.95;;;11.18;;
17193;SDS011;8713;48.388;10.928;2024-02-28T15:33:02;24.02;;;10.52;;
17193;SDS011;8713;48.388;10.928;2024-02-28T15:34:31;19.77;;;9.80;;
17193;SDS011;8713;48.388;10.928;2024-02-28T15:36:00;19.13;;;9.13;;
17193;SDS011;8713;48.388;10.928;2024-02-28T15:37:30;19.55;;;9.43;;
17193;SDS011;8713;48.388;10.928;2024-02-28T15:38:58;18.52;;;9.60;;
17193;SDS011;8713;48.388;10.928;2024-02-28T15:40:27;21.58;;;9.65;;
17193;SDS011;8713;48.388;10.928;2024-02-28T15:41:56;18.58;;;10.00;;
17193;SDS011;8713;48.388;10.928;2024-02-28T15:43:24;19.40;;;9.05;;
17193;SDS011;8713;48.388;10.928;2024-02-28T15:44:52;20.75;;;9.73;;
17193;SDS011;8713;48.388;10.928;2024-02-28T15:46:21;58.58;;;24.20;;
17193;SDS011;8713;48.388;10.928;2024-02-28T15:47:49;36.33;;;15.85;;
17193;SDS011;8713;48.388;10.928;2024-02-28T15:49:19;24.90;;;11.48;;
17193;SDS011;8713;48.388;10.928;2024-02-28T15:50:47;22.70;;;10.55;;
17193;SDS011;8713;48.388;10.928;2024-02-28T15:52:17;28.40;;;12.20;;
17193;SDS011;8713;48.388;10.928;2024-02-28T15:53:34;37.80;;;15.73;;
17193;SDS011;8713;48.388;10.928;2024-02-28T15:55:03;36.38;;;14.88;;
17193;SDS011;8713;48.388;10.928;2024-02-28T15:56:31;30.05;;;11.80;;
17193;SDS011;8713;48.388;10.928;2024-02-28T15:58:00;25.02;;;10.95;;
17193;SDS011;8713;48.388;10.928;2024-02-28T15:59:28;26.90;;;10.05;;
17193;SDS011;8713;48.388;10.928;2024-02-28T16:00:58;25.38;;;10.65;;
17193;SDS011;8713;48.388;10.928;2024-02-28T16:02:26;22.02;;;10.27;;
17193;SDS011;8713;48.388;10.928;2024-02-28T16:03:39;48.88;;;19.13;;
17193;SDS011;8713;48.388;10.928;2024-02-28T16:05:08;32.45;;;13.70;;
17193;SDS011;8713;48.388;10.928;2024-02-28T16:06:37;44.10;;;20.83;;
17193;SDS011;8713;48.388;10.928;2024-02-28T16:08:05;27.00;;;12.98;;
17193;SDS011;8713;48.388;10.928;2024-02-28T16:09:34;35.10;;;21.15;;
17193;SDS011;8713;48.388;10.928;2024-02-28T16:11:02;26.25;;;15.18;;
17193;SDS011;8713;48.388;10.928;2024-02-28T16:12:30;22.27;;;11.55;;
17193;SDS011;8713;48.388;10.928;2024-02-28T16:13:42;21.85;;;11.10;;
17193;SDS011;8713;48.388;10.928;2024-02-28T16:15:11;23.30;;;10.35;;
17193;SDS011;8713;48.388;10.928;2024-02-28T16:16:41;20.42;;;9.60;;
17193;SDS011;8713;48.388;10.928;2024-02-28T16:18:09;17.83;;;8.63;;
17193;SDS011;8713;48.388;10.928;2024-02-28T16:19:37;16.88;;;8.60;;
17193;SDS011;8713;48.388;10.928;2024-02-28T16:21:06;17.52;;;9.43;;
17193;SDS011;8713;48.388;10.928;2024-02-28T16:22:34;18.83;;;9.25;;
17193;SDS011;8713;48.388;10.928;2024-02-28T16:23:43;20.58;;;10.13;;
17193;SDS011;8713;48.388;10.928;2024-02-28T16:24:53;23.55;;;11.48;;
17193;SDS011;8713;48.388;10.928;2024-02-28T16:26:03;22.55;;;11.55;;
17193;SDS011;8713;48.388;10.928;2024-02-28T16:27:31;23.50;;;11.10;;
17193;SDS011;8713;48.388;10.928;2024-02-28T16:29:00;22.67;;;10.45;;
17193;SDS011;8713;48.388;10.928;2024-02-28T16:30:27;25.08;;;12.27;;
17193;SDS011;8713;48.388;10.928;2024-02-28T16:31:57;29.25;;;14.57;;
17193;SDS011;8713;48.388;10.928;2024-02-28T16:33:25;31.48;;;15.27;;
17193;SDS011;8713;48.388;10.928;2024-02-28T16:34:53;32.33;;;14.27;;
17193;SDS011;8713;48.388;10.928;2024-02-28T16:36:21;29.48;;;14.23;;
17193;SDS011;8713;48.388;10.928;2024-02-28T16:37:49;28.70;;;14.68;;